createdAt,value
2023-02-02T00:01:10.459Z,15.60
2023-02-02T00:03:38.416Z,10.20
2023-02-02T00:07:10.799Z,9.00
2023-02-02T00:09:37.761Z,12.30
2023-02-02T00:12:04.814Z,12.80
2023-02-02T00:14:31.651Z,12.80
2023-02-02T00:16:58.908Z,11.40
2023-02-02T00:19:30.300Z,14.40
2023-02-02T00:23:15.284Z,15.80
2023-02-02T00:25:42.148Z,14.50
2023-02-02T00:29:14.682Z,11.10
2023-02-02T00:31:41.545Z,18.30
2023-02-02T00:34:11.238Z,19.60
2023-02-02T00:36:38.182Z,16.40
2023-02-02T00:39:05.034Z,10.70
2023-02-02T00:41:31.881Z,20.20
2023-02-02T00:44:17.446Z,19.80
2023-02-02T00:46:44.303Z,14.30
2023-02-02T00:49:11.153Z,13.40
2023-02-02T00:51:38.133Z,17.60
2023-02-02T00:54:05.476Z,13.20
2023-02-02T00:56:32.435Z,13.40
2023-02-02T00:58:59.259Z,16.50
2023-02-02T01:01:26.358Z,13.10
2023-02-02T01:03:53.357Z,17.30
2023-02-02T01:06:20.523Z,12.60
2023-02-02T01:08:47.588Z,13.70
2023-02-02T01:11:14.515Z,11.00
2023-02-02T01:13:44.738Z,11.90
2023-02-02T01:16:11.934Z,22.40
2023-02-02T01:18:38.763Z,19.10
2023-02-02T01:21:11.093Z,13.60
2023-02-02T01:23:39.109Z,14.70
2023-02-02T01:26:09.463Z,15.20
2023-02-02T01:28:36.676Z,16.40
2023-02-02T01:31:21.572Z,11.70
2023-02-02T01:36:19.720Z,11.60
2023-02-02T01:38:47.513Z,13.20
2023-02-02T01:41:20.765Z,15.50
2023-02-02T01:43:47.490Z,13.90
2023-02-02T01:46:15.348Z,13.90
2023-02-02T01:48:46.271Z,14.20
2023-02-02T01:51:19.936Z,12.70
2023-02-02T01:53:48.323Z,10.70
2023-02-02T01:56:19.404Z,11.40
2023-02-02T01:58:46.491Z,12.80
2023-02-02T02:01:16.217Z,9.90
2023-02-02T02:03:52.500Z,11.00
2023-02-02T02:06:20.079Z,14.90
2023-02-02T02:08:52.441Z,15.00
2023-02-02T02:11:20.403Z,14.90
2023-02-02T02:14:06.383Z,11.40
2023-02-02T02:17:09.144Z,12.80
2023-02-02T02:20:01.596Z,13.40
2023-02-02T02:23:15.194Z,9.80
2023-02-02T02:26:04.767Z,9.10
2023-02-02T02:28:34.480Z,12.80
2023-02-02T02:31:07.308Z,12.40
2023-02-02T02:33:45.643Z,11.10
2023-02-02T02:36:21.699Z,11.10
2023-02-02T02:38:52.984Z,6.70
2023-02-02T02:41:23.475Z,7.00
2023-02-02T02:43:59.066Z,4.00
2023-02-02T02:46:27.031Z,11.00
2023-02-02T02:48:57.823Z,7.60
2023-02-02T02:51:45.900Z,5.20
2023-02-02T02:54:22.880Z,4.40
2023-02-02T02:57:11.242Z,6.30
2023-02-02T02:59:45.717Z,11.70
2023-02-02T03:02:17.328Z,6.20
2023-02-02T03:04:45.764Z,6.40
2023-02-02T03:07:22.750Z,8.70
2023-02-02T03:09:50.565Z,7.20
2023-02-02T03:12:17.871Z,6.50
2023-02-02T03:14:45.640Z,7.20
2023-02-02T03:17:12.493Z,11.60
2023-02-02T03:19:39.374Z,9.20
2023-02-02T03:22:06.188Z,8.50
2023-02-02T03:24:33.024Z,9.70
2023-02-02T03:26:59.775Z,11.80
2023-02-02T03:29:27.501Z,10.20
2023-02-02T03:31:54.293Z,13.90
2023-02-02T03:34:21.138Z,10.70
2023-02-02T03:36:49.430Z,6.90
2023-02-02T03:39:16.243Z,7.80
2023-02-02T03:41:43.001Z,8.90
2023-02-02T03:44:10.055Z,8.00
2023-02-02T03:46:36.967Z,15.10
2023-02-02T03:49:03.857Z,11.10
2023-02-02T03:51:30.802Z,12.40
2023-02-02T03:53:57.757Z,10.30
2023-02-02T03:56:24.596Z,9.30
2023-02-02T03:58:51.653Z,8.80
2023-02-02T04:01:27.234Z,10.30
2023-02-02T04:03:54.084Z,12.40
2023-02-02T04:06:21.382Z,15.10
2023-02-02T04:08:48.353Z,14.00
2023-02-02T04:11:15.402Z,19.10
2023-02-02T04:16:12.283Z,14.20
2023-02-02T04:18:39.163Z,10.10
2023-02-02T04:21:07.703Z,11.70
2023-02-02T04:23:35.166Z,17.30
2023-02-02T04:26:02.176Z,17.00
2023-02-02T04:28:29.271Z,12.70
2023-02-02T04:30:56.946Z,11.20
2023-02-02T04:33:25.946Z,15.30
2023-02-02T04:35:52.840Z,15.00
2023-02-02T04:38:20.147Z,16.30
2023-02-02T04:40:48.128Z,13.80
2023-02-02T04:43:15.247Z,17.10
2023-02-02T04:45:42.626Z,11.70
2023-02-02T04:48:10.072Z,13.10
2023-02-02T04:50:36.827Z,13.70
2023-02-02T04:53:04.342Z,13.10
2023-02-02T04:55:31.233Z,16.00
2023-02-02T04:57:57.990Z,16.40
2023-02-02T05:00:26.973Z,12.40
2023-02-02T05:02:53.823Z,17.70
2023-02-02T05:05:20.725Z,12.50
2023-02-02T05:07:47.519Z,19.90
2023-02-02T05:10:14.305Z,12.10
2023-02-02T05:12:41.135Z,16.60
2023-02-02T05:15:08.788Z,15.60
2023-02-02T05:17:35.585Z,13.40
2023-02-02T05:20:02.490Z,13.60
2023-02-02T05:22:29.425Z,17.90
2023-02-02T05:24:56.153Z,11.60
2023-02-02T05:27:23.020Z,13.40
2023-02-02T05:29:49.799Z,19.80
2023-02-02T05:32:17.047Z,14.30
2023-02-02T05:37:11.225Z,13.60
2023-02-02T05:39:38.173Z,15.70
2023-02-02T05:42:05.091Z,12.00
2023-02-02T05:44:31.950Z,14.70
2023-02-02T05:46:58.817Z,13.20
2023-02-02T05:49:28.010Z,11.70
2023-02-02T05:51:57.294Z,16.30
2023-02-02T05:54:24.726Z,11.30
2023-02-02T05:56:53.477Z,15.40
2023-02-02T05:59:20.527Z,17.00
2023-02-02T06:01:47.780Z,18.60
2023-02-02T06:04:15.808Z,17.20
2023-02-02T06:06:42.804Z,16.30
2023-02-02T06:09:10.061Z,14.60
2023-02-02T06:11:37.023Z,13.40
2023-02-02T06:14:03.954Z,13.50
2023-02-02T06:16:31.036Z,15.20
2023-02-02T06:18:57.831Z,11.80
2023-02-02T06:21:24.863Z,17.30
2023-02-02T06:23:54.019Z,14.40
2023-02-02T06:26:20.883Z,13.70
2023-02-02T06:28:53.355Z,12.40
2023-02-02T06:31:21.819Z,21.10
2023-02-02T06:33:53.926Z,14.80
2023-02-02T06:36:21.236Z,9.60
2023-02-02T06:38:52.882Z,13.90
2023-02-02T06:41:20.594Z,10.10
2023-02-02T06:43:48.433Z,13.80
2023-02-02T06:46:15.841Z,15.90
2023-02-02T06:48:43.148Z,11.90
2023-02-02T06:51:10.106Z,10.20
2023-02-02T06:53:37.055Z,13.10
2023-02-02T06:56:06.503Z,14.80
2023-02-02T06:58:34.739Z,10.40
2023-02-02T07:01:04.470Z,12.30
2023-02-02T07:03:31.728Z,12.50
2023-02-02T07:05:58.561Z,12.50
2023-02-02T07:08:25.708Z,14.70
2023-02-02T07:11:13.953Z,13.90
2023-02-02T07:13:39.760Z,10.90
2023-02-02T07:16:06.854Z,12.40
2023-02-02T07:18:33.966Z,12.30
2023-02-02T07:21:01.334Z,9.50
2023-02-02T07:27:43.201Z,15.20
2023-02-02T07:30:10.923Z,9.90
2023-02-02T07:32:37.713Z,12.90
2023-02-02T07:35:05.083Z,13.20
2023-02-02T07:37:32.110Z,12.30
2023-02-02T07:39:58.960Z,13.70
2023-02-02T07:42:25.655Z,15.80
2023-02-02T07:44:52.484Z,10.50
2023-02-02T07:47:19.177Z,11.00
2023-02-02T07:49:46.456Z,14.90
2023-02-02T07:52:13.318Z,11.80
2023-02-02T07:54:40.113Z,12.60
2023-02-02T07:57:06.825Z,9.80
2023-02-02T07:59:33.741Z,13.90
2023-02-02T08:02:00.625Z,14.50
2023-02-02T08:04:30.298Z,12.20
2023-02-02T08:06:57.147Z,13.10
2023-02-02T08:09:23.993Z,11.50
2023-02-02T08:11:51.047Z,14.10
2023-02-02T08:14:18.205Z,12.40
2023-02-02T08:16:44.905Z,11.80
2023-02-02T08:19:12.103Z,14.80
2023-02-02T08:21:38.838Z,16.00
2023-02-02T08:24:08.656Z,12.20
2023-02-02T08:26:35.649Z,18.70
2023-02-02T08:29:05.535Z,10.50
2023-02-02T08:31:37.838Z,13.00
2023-02-02T08:34:05.662Z,12.70
2023-02-02T08:36:35.617Z,11.70
2023-02-02T08:39:05.384Z,16.60
2023-02-02T08:41:32.764Z,13.00
2023-02-02T08:43:59.709Z,14.80
2023-02-02T08:46:26.763Z,12.00
2023-02-02T08:48:53.703Z,12.70
2023-02-02T08:51:20.857Z,13.10
2023-02-02T08:53:47.957Z,11.40
2023-02-02T08:56:17.347Z,13.40
2023-02-02T08:58:50.216Z,15.50
2023-02-02T09:01:19.266Z,12.70
2023-02-02T09:03:46.761Z,15.10
2023-02-02T09:06:18.949Z,11.80
2023-02-02T09:08:46.413Z,17.40
2023-02-02T09:11:14.363Z,21.30
2023-02-02T09:13:42.227Z,14.50
2023-02-02T09:16:11.388Z,10.80
2023-02-02T09:18:38.897Z,10.60
2023-02-02T09:21:07.729Z,9.60
2023-02-02T09:23:36.488Z,17.00
2023-02-02T09:26:17.272Z,11.20
2023-02-02T09:28:50.511Z,11.00
2023-02-02T09:31:17.602Z,13.90
2023-02-02T09:33:44.965Z,11.20
2023-02-02T09:36:16.324Z,15.80
2023-02-02T09:38:44.476Z,12.80
2023-02-02T09:41:37.667Z,14.90
2023-02-02T09:44:19.509Z,15.80
2023-02-02T09:47:07.643Z,12.60
2023-02-02T09:49:46.665Z,14.80
2023-02-02T09:52:22.362Z,15.90
2023-02-02T09:54:51.009Z,17.10
2023-02-02T09:57:24.516Z,10.80
2023-02-02T09:59:52.680Z,15.90
2023-02-02T10:02:26.517Z,12.80
2023-02-02T10:04:57.611Z,15.90
2023-02-02T10:07:33.471Z,13.40
2023-02-02T10:10:04.014Z,14.50
2023-02-02T10:13:08.725Z,14.10
2023-02-02T10:15:46.413Z,13.80
2023-02-02T10:18:32.094Z,16.40
2023-02-02T10:21:20.541Z,14.10
2023-02-02T10:23:47.295Z,13.50
2023-02-02T10:26:38.145Z,12.50
2023-02-02T10:29:24.881Z,17.30
2023-02-02T10:32:04.112Z,14.80
2023-02-02T10:35:13.091Z,13.50
2023-02-02T10:37:54.493Z,9.90
2023-02-02T10:40:37.921Z,8.90
2023-02-02T10:43:48.607Z,17.50
2023-02-02T10:46:32.184Z,15.70
2023-02-02T10:49:15.006Z,15.40
2023-02-02T10:51:46.324Z,13.10
2023-02-02T10:54:55.723Z,12.70
2023-02-02T10:57:51.883Z,16.00
2023-02-02T11:00:22.584Z,12.30
2023-02-02T11:02:51.196Z,12.30
2023-02-02T11:05:46.021Z,12.60
2023-02-02T11:08:14.926Z,10.50
2023-02-02T11:10:43.474Z,10.70
2023-02-02T11:13:27.101Z,17.90
2023-02-02T11:16:16.069Z,10.10
2023-02-02T11:18:44.411Z,12.00
2023-02-02T11:21:27.757Z,9.80
2023-02-02T11:24:07.303Z,15.50
2023-02-02T11:26:50.688Z,14.70
2023-02-02T11:29:28.102Z,12.90
2023-02-02T11:31:55.127Z,10.80
2023-02-02T11:34:24.441Z,16.80
2023-02-02T11:37:03.689Z,12.80
2023-02-02T11:39:30.721Z,14.20
2023-02-02T11:42:06.188Z,9.70
2023-02-02T11:44:35.804Z,10.20
2023-02-02T11:47:04.963Z,13.60
2023-02-02T11:49:37.476Z,12.00
2023-02-02T11:52:07.824Z,17.60
2023-02-02T11:54:36.386Z,13.30
2023-02-02T11:57:05.303Z,14.20
2023-02-02T11:59:42.777Z,12.20
2023-02-02T12:02:26.001Z,9.10
2023-02-02T12:04:55.624Z,8.80
2023-02-02T12:07:22.477Z,11.20
2023-02-02T12:09:50.482Z,11.40
2023-02-02T12:12:43.561Z,15.50
2023-02-02T12:15:10.415Z,12.10
2023-02-02T12:17:45.230Z,11.30
2023-02-02T12:20:51.962Z,9.10
2023-02-02T12:23:37.170Z,11.40
2023-02-02T12:26:13.058Z,10.80
2023-02-02T12:29:07.797Z,11.90
2023-02-02T12:32:00.685Z,12.70
2023-02-02T12:34:41.921Z,16.80
2023-02-02T12:37:27.585Z,15.70
2023-02-02T12:40:13.077Z,17.90
2023-02-02T12:42:49.123Z,12.70
2023-02-02T12:45:38.134Z,11.70
2023-02-02T12:48:28.287Z,10.70
2023-02-02T12:51:01.052Z,11.90
2023-02-02T12:53:45.191Z,9.20
2023-02-02T12:56:51.938Z,14.70
2023-02-02T12:59:39.834Z,12.90
2023-02-02T13:02:25.553Z,11.00
2023-02-02T13:04:58.912Z,10.30
2023-02-02T13:07:36.622Z,9.90
2023-02-02T13:10:23.900Z,14.00
2023-02-02T13:12:55.440Z,11.90
2023-02-02T13:15:24.867Z,13.10
2023-02-02T13:17:54.923Z,13.20
2023-02-02T13:20:22.084Z,11.10
2023-02-02T13:22:53.122Z,16.60
2023-02-02T13:25:32.247Z,16.30
2023-02-02T13:28:00.222Z,15.40
2023-02-02T13:30:38.786Z,14.00
2023-02-02T13:33:14.303Z,12.40
2023-02-02T13:35:52.316Z,8.40
2023-02-02T13:38:23.691Z,10.10
2023-02-02T13:40:52.319Z,13.90
2023-02-02T13:43:34.939Z,14.30
2023-02-02T13:46:23.501Z,12.90
2023-02-02T13:48:53.555Z,8.60
2023-02-02T13:51:32.541Z,10.50
2023-02-02T13:54:17.682Z,9.20
2023-02-02T13:56:44.439Z,10.10
2023-02-02T13:59:40.435Z,7.30
2023-02-02T14:02:32.346Z,7.00
2023-02-02T14:05:01.881Z,9.00
2023-02-02T14:07:40.247Z,12.30
2023-02-02T14:10:23.882Z,9.20
2023-02-02T14:12:51.031Z,9.90
2023-02-02T14:15:18.410Z,11.70
2023-02-02T14:17:47.216Z,10.10
2023-02-02T14:20:40.275Z,9.10
2023-02-02T14:23:45.060Z,10.70
2023-02-02T14:26:12.196Z,11.90
2023-02-02T14:28:44.598Z,9.30
2023-02-02T14:31:27.194Z,10.30
2023-02-02T14:34:35.706Z,7.70
2023-02-02T14:37:05.690Z,9.30
2023-02-02T14:39:55.617Z,10.20
2023-02-02T14:42:56.067Z,10.50
2023-02-02T14:45:28.576Z,9.00
2023-02-02T14:48:20.451Z,8.20
2023-02-02T14:50:54.660Z,7.30
2023-02-02T14:53:28.643Z,8.40
2023-02-02T14:56:11.429Z,6.50
2023-02-02T14:58:38.896Z,6.40
2023-02-02T15:01:18.005Z,4.80
2023-02-02T15:04:20.260Z,8.70
2023-02-02T15:06:53.040Z,5.70
2023-02-02T15:09:20.118Z,6.90
2023-02-02T15:12:01.186Z,5.80
2023-02-02T15:14:51.642Z,4.80
2023-02-02T15:17:37.237Z,5.50
2023-02-02T15:20:30.681Z,7.60
2023-02-02T15:23:26.718Z,6.30
2023-02-02T15:26:22.593Z,6.00
2023-02-02T15:28:59.890Z,5.20
2023-02-02T15:31:47.377Z,5.60
2023-02-02T15:34:30.731Z,5.20
2023-02-02T15:37:02.795Z,7.60
2023-02-02T15:39:41.925Z,5.40
2023-02-02T15:42:55.137Z,5.90
2023-02-02T15:45:54.833Z,6.50
2023-02-02T15:48:30.275Z,3.40
2023-02-02T15:50:59.879Z,6.80
2023-02-02T15:53:31.570Z,3.20
2023-02-02T15:55:58.696Z,5.40
2023-02-02T15:58:37.826Z,4.90
2023-02-02T16:01:13.048Z,6.60
2023-02-02T16:03:58.606Z,7.00
2023-02-02T16:06:25.479Z,6.50
2023-02-02T16:08:52.324Z,6.00
2023-02-02T16:11:23.473Z,3.10
2023-02-02T16:14:05.676Z,4.80
2023-02-02T16:16:35.413Z,5.90
2023-02-02T16:19:13.378Z,5.20
2023-02-02T16:21:47.282Z,6.00
2023-02-02T16:24:27.338Z,5.10
2023-02-02T16:26:56.050Z,5.30
2023-02-02T16:29:23.366Z,6.20
2023-02-02T16:31:50.721Z,5.90
2023-02-02T16:34:19.436Z,6.30
2023-02-02T16:37:05.534Z,5.20
2023-02-02T16:39:32.413Z,4.90
2023-02-02T16:42:25.811Z,5.00
2023-02-02T16:44:56.150Z,6.40
2023-02-02T16:47:25.777Z,5.50
2023-02-02T16:49:54.354Z,7.00
2023-02-02T16:52:22.111Z,7.00
2023-02-02T16:54:56.945Z,5.80
2023-02-02T16:57:31.178Z,6.10
2023-02-02T17:00:01.678Z,7.40
2023-02-02T17:02:35.384Z,6.90
2023-02-02T17:05:15.867Z,7.20
2023-02-02T17:07:48.333Z,9.60
2023-02-02T17:10:23.628Z,8.30
2023-02-02T17:12:50.619Z,7.80
2023-02-02T17:15:17.651Z,11.10
2023-02-02T17:17:48.216Z,9.10
2023-02-02T17:20:19.980Z,10.20
2023-02-02T17:22:49.060Z,13.80
2023-02-02T17:25:27.564Z,10.70
2023-02-02T17:27:55.224Z,13.10
2023-02-02T17:30:24.735Z,13.80
2023-02-02T17:32:51.503Z,14.70
2023-02-02T17:35:24.226Z,14.40
2023-02-02T17:37:53.057Z,14.50
2023-02-02T17:40:22.363Z,12.60
2023-02-02T17:42:51.833Z,14.10
2023-02-02T17:45:23.880Z,16.10
2023-02-02T17:47:51.511Z,11.00
2023-02-02T17:50:18.883Z,15.30
2023-02-02T17:52:46.314Z,15.20
2023-02-02T17:55:26.378Z,15.30
2023-02-02T17:57:56.297Z,16.90
2023-02-02T18:00:25.955Z,12.20
2023-02-02T18:02:58.001Z,13.10
2023-02-02T18:05:25.130Z,13.60
2023-02-02T18:07:52.574Z,14.20
2023-02-02T18:10:19.553Z,13.40
2023-02-02T18:12:46.280Z,17.20
2023-02-02T18:15:15.891Z,13.00
2023-02-02T18:17:43.136Z,11.90
2023-02-02T18:20:14.726Z,12.90
2023-02-02T18:22:47.350Z,14.90
2023-02-02T18:25:15.183Z,16.50
2023-02-02T18:27:41.883Z,13.20
2023-02-02T18:30:10.136Z,13.70
2023-02-02T18:32:49.867Z,12.80
2023-02-02T18:35:16.774Z,17.60
2023-02-02T18:37:43.613Z,13.90
2023-02-02T18:40:11.177Z,14.90
2023-02-02T18:42:38.632Z,12.10
2023-02-02T18:45:06.721Z,14.00
2023-02-02T18:47:33.540Z,14.30
2023-02-02T18:50:00.294Z,15.10
2023-02-02T18:52:27.252Z,11.10
2023-02-02T18:54:54.102Z,14.50
2023-02-02T18:57:20.939Z,12.90
2023-02-02T18:59:47.690Z,11.80
2023-02-02T19:02:16.312Z,12.40
2023-02-02T19:05:03.823Z,15.30
2023-02-02T19:07:50.898Z,12.90
2023-02-02T19:10:18.977Z,14.80
2023-02-02T19:13:06.733Z,13.20
2023-02-02T19:15:35.187Z,9.40
2023-02-02T19:18:02.543Z,12.70
2023-02-02T19:20:30.541Z,15.70
2023-02-02T19:23:11.543Z,12.90
2023-02-02T19:25:40.814Z,12.10
2023-02-02T19:28:19.610Z,12.40
2023-02-02T19:30:46.719Z,14.70
2023-02-02T19:33:14.958Z,13.70
2023-02-02T19:35:48.066Z,14.80
2023-02-02T19:38:19.403Z,11.40
2023-02-02T19:40:46.693Z,14.90
2023-02-02T19:43:16.452Z,11.60
2023-02-02T19:45:43.292Z,14.80
2023-02-02T19:48:18.742Z,12.20
2023-02-02T19:50:46.298Z,17.80
2023-02-02T19:53:28.487Z,13.80
2023-02-02T19:55:55.375Z,12.80
2023-02-02T19:58:29.996Z,12.20
2023-02-02T20:03:27.501Z,10.80
2023-02-02T20:05:56.990Z,13.00
2023-02-02T20:08:40.405Z,11.10
2023-02-02T20:11:19.411Z,11.40
2023-02-02T20:13:48.585Z,12.80
2023-02-02T20:16:20.741Z,12.00
2023-02-02T20:18:57.449Z,8.90
2023-02-02T20:21:43.733Z,15.40
2023-02-02T20:24:19.546Z,10.80
2023-02-02T20:26:46.473Z,13.20
2023-02-02T20:29:28.136Z,9.10
2023-02-02T20:31:58.024Z,8.90
2023-02-02T20:34:44.639Z,10.60
2023-02-02T20:37:40.856Z,9.90
2023-02-02T20:40:21.728Z,8.80
2023-02-02T20:42:49.390Z,12.00
2023-02-02T20:45:17.824Z,12.00
2023-02-02T20:47:46.051Z,12.00
2023-02-02T20:50:14.776Z,13.20
2023-02-02T20:52:42.008Z,12.20
2023-02-02T20:55:09.667Z,11.20
2023-02-02T20:57:38.647Z,10.10
2023-02-02T21:00:08.129Z,9.80
2023-02-02T21:02:35.356Z,7.80
2023-02-02T21:05:04.631Z,9.10
2023-02-02T21:07:31.424Z,10.70
2023-02-02T21:09:58.519Z,14.00
2023-02-02T21:12:25.845Z,11.50
2023-02-02T21:14:53.958Z,9.10
2023-02-02T21:17:20.899Z,11.80
2023-02-02T21:19:47.752Z,9.90
2023-02-02T21:22:14.899Z,9.20
2023-02-02T21:24:42.694Z,9.30
2023-02-02T21:27:10.716Z,9.30
2023-02-02T21:29:38.579Z,13.70
2023-02-02T21:32:05.710Z,10.10
2023-02-02T21:34:32.767Z,8.80
2023-02-02T21:36:59.874Z,7.70
2023-02-02T21:39:33.497Z,11.40
2023-02-02T21:42:11.737Z,11.10
2023-02-02T21:44:45.300Z,11.60
2023-02-02T21:47:27.714Z,14.90
2023-02-02T21:49:56.954Z,10.80
2023-02-02T21:52:23.835Z,6.90
2023-02-02T21:54:50.733Z,10.50
2023-02-02T21:57:22.853Z,10.20
2023-02-02T21:59:56.828Z,9.50
2023-02-02T22:02:32.546Z,10.30
2023-02-02T22:05:01.718Z,13.40
2023-02-02T22:07:32.452Z,16.00
2023-02-02T22:09:59.292Z,10.80
2023-02-02T22:12:28.623Z,8.90
2023-02-02T22:15:01.678Z,11.30
2023-02-02T22:17:34.983Z,13.10
2023-02-02T22:20:07.865Z,11.00
2023-02-02T22:22:36.669Z,9.40
2023-02-02T22:25:34.439Z,13.10
2023-02-02T22:28:19.250Z,12.40
2023-02-02T22:33:13.792Z,9.70
2023-02-02T22:35:41.964Z,11.50
2023-02-02T22:38:09.419Z,16.10
2023-02-02T22:40:36.566Z,12.40
2023-02-02T22:43:05.869Z,8.70
2023-02-02T22:45:33.095Z,13.10
2023-02-02T22:48:00.051Z,12.70
2023-02-02T22:50:30.536Z,15.70
2023-02-02T22:52:57.877Z,11.40
2023-02-02T22:55:27.401Z,11.60
2023-02-02T22:57:54.240Z,10.60
2023-02-02T23:00:29.788Z,14.60
2023-02-02T23:02:57.130Z,13.10
2023-02-02T23:05:25.354Z,16.20
2023-02-02T23:07:53.703Z,15.30
2023-02-02T23:10:23.202Z,18.60
2023-02-02T23:12:50.711Z,13.40
2023-02-02T23:15:19.277Z,15.80
2023-02-02T23:17:48.877Z,12.40
2023-02-02T23:20:16.753Z,14.10
2023-02-02T23:22:43.877Z,12.80
2023-02-02T23:25:12.269Z,13.10
2023-02-02T23:27:39.231Z,11.90
2023-02-02T23:30:07.795Z,10.30
2023-02-02T23:32:35.361Z,9.30
2023-02-02T23:35:02.523Z,12.10
2023-02-02T23:37:29.234Z,15.10
2023-02-02T23:39:56.102Z,12.30
2023-02-02T23:42:23.000Z,11.40
2023-02-02T23:44:49.855Z,11.80
2023-02-02T23:47:16.854Z,12.70
2023-02-02T23:49:44.001Z,12.30
2023-02-02T23:52:10.771Z,15.10
2023-02-02T23:54:37.798Z,11.20
2023-02-02T23:57:04.743Z,9.60
2023-02-02T23:59:31.595Z,10.80
